Time;durP1;ratioP1;P1;durP2;ratioP2;P2;SDS_P1;SDS_P2;PMS_P1;PMS_P2;Temp;Humidity;BMP_temperature;BMP_pressure;BME280_temperature;BME280_humidity;BME280_pressure;Samples;Min_cycle;Max_cycle;Signal;HPM_P1;HPM_P2
2021/09/21 00:00:44;;;;;;;10.40;7.65;;;18.30;87.40;;;;;;1917489;75;21070;-47
2021/09/21 00:03:13;;;;;;;10.95;8.05;;;18.30;88.10;;;;;;1917412;75;20978;-47
2021/09/21 00:05:43;;;;;;;14.38;7.75;;;18.30;87.60;;;;;;1917507;75;21014;-48
2021/09/21 00:08:12;;;;;;;18.70;9.75;;;18.30;87.60;;;;;;1917458;75;21060;-50
2021/09/21 00:10:42;;;;;;;18.55;10.10;;;18.40;87.50;;;;;;1917510;75;21053;-47
2021/09/21 00:13:11;;;;;;;23.45;10.40;;;18.30;87.40;;;;;;1917463;75;20983;-50
2021/09/21 00:15:41;;;;;;;12.90;9.30;;;18.30;87.50;;;;;;1917598;75;21018;-50
2021/09/21 00:18:10;;;;;;;16.52;8.93;;;18.30;87.50;;;;;;1917513;75;20982;-47
2021/09/21 00:20:39;;;;;;;19.48;8.20;;;18.30;87.60;;;;;;1917531;75;21007;-50
2021/09/21 00:23:09;;;;;;;11.75;7.92;;;18.30;87.60;;;;;;1917347;75;21084;-50
2021/09/21 00:25:39;;;;;;;12.63;8.00;;;18.30;87.70;;;;;;1917402;75;20990;-48
2021/09/21 00:28:08;;;;;;;11.65;8.18;;;18.30;87.70;;;;;;1917421;75;21058;-47
2021/09/21 00:30:45;;;;;;;12.10;7.08;;;18.30;87.80;;;;;;1917474;75;21014;-50
2021/09/21 00:33:16;;;;;;;12.80;8.53;;;18.30;87.90;;;;;;1916076;75;21077;-48
2021/09/21 00:35:39;;;;;;;14.05;8.40;;;18.30;87.90;;;;;;1915800;74;21006;-49
2021/09/21 00:38:09;;;;;;;12.07;8.13;;;18.30;87.90;;;;;;1917493;75;21018;-49
2021/09/21 00:40:38;;;;;;;16.00;8.70;;;18.30;87.90;;;;;;1917484;75;21068;-50
2021/09/21 00:43:08;;;;;;;14.60;8.73;;;18.40;87.80;;;;;;1917574;75;20998;-49
2021/09/21 00:45:39;;;;;;;14.35;8.78;;;18.40;87.80;;;;;;1917602;75;20994;-48
2021/09/21 00:48:09;;;;;;;12.70;8.38;;;18.40;87.60;;;;;;1917449;75;21002;-50
2021/09/21 00:50:38;;;;;;;16.87;10.50;;;18.30;87.40;;;;;;1921788;74;21002;-49
2021/09/21 00:53:08;;;;;;;16.85;10.15;;;18.30;87.60;;;;;;1933667;74;21080;-50
2021/09/21 00:55:37;;;;;;;20.05;10.00;;;18.30;87.60;;;;;;1933499;74;21061;-50
2021/09/21 00:58:06;;;;;;;19.17;10.28;;;18.30;87.90;;;;;;1933656;74;21013;-50
2021/09/21 01:00:36;;;;;;;16.27;9.88;;;18.30;88.00;;;;;;1933655;74;21006;-51
2021/09/21 01:03:05;;;;;;;16.95;8.98;;;18.30;88.00;;;;;;1933559;74;21095;-48
2021/09/21 01:05:36;;;;;;;20.55;9.95;;;18.30;88.00;;;;;;1933441;74;21616;-50
2021/09/21 01:08:06;;;;;;;15.90;9.85;;;18.30;88.10;;;;;;1933535;74;21080;-49
2021/09/21 01:10:36;;;;;;;13.68;9.85;;;18.30;88.20;;;;;;1933412;74;21005;-50
2021/09/21 01:13:05;;;;;;;20.95;12.80;;;18.30;88.20;;;;;;1933509;74;21030;-47
2021/09/21 01:15:35;;;;;;;33.88;14.93;;;18.30;88.10;;;;;;1933418;74;21033;-50
2021/09/21 01:18:04;;;;;;;21.62;12.75;;;18.30;87.90;;;;;;1933575;74;21045;-50
2021/09/21 01:20:33;;;;;;;32.17;17.25;;;18.30;88.00;;;;;;1933427;74;20982;-49
2021/09/21 01:23:06;;;;;;;28.35;15.95;;;18.20;88.30;;;;;;1933418;74;21014;-50
2021/09/21 01:25:36;;;;;;;24.15;13.55;;;18.20;88.50;;;;;;1933470;74;21033;-50
2021/09/21 01:28:05;;;;;;;23.12;14.18;;;18.20;88.60;;;;;;1933434;74;21006;-48
2021/09/21 01:30:34;;;;;;;31.52;16.85;;;18.30;88.70;;;;;;1933394;74;21154;-51
2021/09/21 01:33:04;;;;;;;31.17;16.55;;;18.30;88.60;;;;;;1933491;74;21061;-49
2021/09/21 01:35:34;;;;;;;27.48;12.95;;;18.30;88.30;;;;;;1933415;74;21053;-50
2021/09/21 01:38:03;;;;;;;23.27;14.78;;;18.20;88.40;;;;;;1933665;74;21022;-50
2021/09/21 01:40:33;;;;;;;27.25;15.43;;;18.20;88.80;;;;;;1933423;74;20994;-50
2021/09/21 01:43:02;;;;;;;29.85;15.95;;;18.20;88.90;;;;;;1933397;74;20997;-51
2021/09/21 01:45:31;;;;;;;29.15;17.15;;;18.20;88.80;;;;;;1933413;74;20994;-50
2021/09/21 01:48:01;;;;;;;34.23;17.25;;;18.10;88.70;;;;;;1933544;74;21005;-49
2021/09/21 01:50:43;;;;;;;27.58;15.05;;;18.10;88.70;;;;;;1933409;74;20982;-47
2021/09/21 01:53:14;;;;;;;29.55;15.43;;;18.00;88.70;;;;;;1930661;74;21159;-50
2021/09/21 01:58:46;;;;;;;27.65;13.62;;;18.00;89.10;;;;;;1933467;74;21119;-50
2021/09/21 02:00:49;;;;;;;27.20;14.90;;;18.00;89.30;;;;;;1885129;76;21034;-49
2021/09/21 02:03:19;;;;;;;34.20;16.30;;;18.10;89.30;;;;;;1933452;74;21005;-50
2021/09/21 02:05:48;;;;;;;34.30;17.00;;;18.10;89.20;;;;;;1890000;76;21014;-50
2021/09/21 02:08:17;;;;;;;30.95;15.70;;;18.10;89.20;;;;;;1933544;74;21010;-50
2021/09/21 02:10:47;;;;;;;35.17;16.57;;;18.10;89.90;;;;;;1889957;76;21053;-50
2021/09/21 02:13:16;;;;;;;34.27;17.57;;;18.20;89.40;;;;;;1933445;74;21036;-50
2021/09/21 02:15:46;;;;;;;30.50;16.17;;;18.20;89.30;;;;;;1889975;76;21030;-50
2021/09/21 02:18:15;;;;;;;30.70;15.85;;;18.20;89.20;;;;;;1933358;74;21025;-51
2021/09/21 02:20:45;;;;;;;36.35;18.80;;;18.20;89.20;;;;;;1889996;76;21100;-50
2021/09/21 02:23:14;;;;;;;30.75;15.83;;;18.20;89.10;;;;;;1933465;74;21021;-51
2021/09/21 02:25:44;;;;;;;36.00;19.62;;;18.10;89.10;;;;;;1889985;76;21088;-48
2021/09/21 02:28:13;;;;;;;27.58;14.68;;;18.10;89.30;;;;;;1933376;74;21045;-47
2021/09/21 02:30:42;;;;;;;31.37;16.37;;;18.10;89.40;;;;;;1889944;76;21492;-50
2021/09/21 02:33:12;;;;;;;32.45;16.57;;;18.10;89.50;;;;;;1933379;74;20978;-50
2021/09/21 02:35:42;;;;;;;28.02;17.05;;;18.20;89.50;;;;;;1889936;76;21084;-50
2021/09/21 02:38:11;;;;;;;28.40;15.35;;;18.10;89.40;;;;;;1933519;74;20982;-50
2021/09/21 02:40:41;;;;;;;27.20;14.70;;;18.10;89.50;;;;;;1890056;76;21104;-50
2021/09/21 02:43:10;;;;;;;31.77;16.45;;;18.20;89.60;;;;;;1933378;74;21022;-51
2021/09/21 02:45:39;;;;;;;32.70;15.05;;;18.20;90.00;;;;;;1890154;76;21534;-49
2021/09/21 02:48:08;;;;;;;32.13;14.03;;;18.20;89.40;;;;;;1933373;74;21005;-49
2021/09/21 02:50:38;;;;;;;26.07;15.05;;;18.10;89.40;;;;;;1890017;76;21006;-51
2021/09/21 02:53:07;;;;;;;29.23;15.00;;;18.20;89.60;;;;;;1933310;74;21045;-51
2021/09/21 02:55:37;;;;;;;21.25;13.05;;;18.20;89.60;;;;;;1933306;74;20997;-50
2021/09/21 02:58:06;;;;;;;26.50;13.70;;;18.10;89.60;;;;;;1933414;74;21486;-50
2021/09/21 03:00:35;;;;;;;25.45;12.65;;;18.20;89.80;;;;;;1889920;76;21033;-49
2021/09/21 03:03:06;;;;;;;30.50;13.78;;;18.20;90.00;;;;;;1933384;74;21491;-50
2021/09/21 03:05:44;;;;;;;17.87;11.40;;;18.20;90.00;;;;;;1890044;76;21123;-49
2021/09/21 03:08:18;;;;;;;19.17;11.35;;;18.20;90.00;;;;;;1933404;74;21018;-48
2021/09/21 03:18:47;;;;;;;20.25;12.53;;;18.40;90.20;;;;;;1933433;74;21013;-49
2021/09/21 03:21:17;;;;;;;20.40;12.05;;;18.30;90.10;;;;;;1890006;76;21003;-50
2021/09/21 03:23:46;;;;;;;23.95;14.63;;;18.40;90.20;;;;;;1933315;74;21001;-49
2021/09/21 03:26:16;;;;;;;24.20;15.00;;;18.40;90.10;;;;;;1889917;76;21034;-49
2021/09/21 03:28:46;;;;;;;22.17;13.93;;;18.40;90.00;;;;;;1933310;74;21005;-49
2021/09/21 03:31:15;;;;;;;23.98;13.13;;;18.30;90.00;;;;;;1889939;76;21097;-50
2021/09/21 03:33:45;;;;;;;29.02;14.85;;;18.30;90.10;;;;;;1933283;74;21030;-51
2021/09/21 03:36:14;;;;;;;24.07;15.03;;;18.30;90.10;;;;;;1890002;76;21107;-48
2021/09/21 03:38:43;;;;;;;19.10;13.08;;;18.30;90.10;;;;;;1933463;74;21061;-49
2021/09/21 03:41:13;;;;;;;23.02;13.60;;;18.30;90.20;;;;;;1889950;76;21108;-48
2021/09/21 03:43:42;;;;;;;25.75;15.20;;;18.30;90.30;;;;;;1933348;74;20997;-49
2021/09/21 03:46:11;;;;;;;21.12;14.40;;;18.30;90.30;;;;;;1890167;76;21115;-47
2021/09/21 03:48:41;;;;;;;22.62;14.95;;;18.30;90.30;;;;;;1933446;74;21027;-48
2021/09/21 03:51:11;;;;;;;20.05;13.65;;;18.20;90.30;;;;;;1890072;76;21010;-48
2021/09/21 03:53:40;;;;;;;22.00;13.62;;;18.20;90.30;;;;;;1898355;74;21070;-51
2021/09/21 03:56:10;;;;;;;19.90;12.25;;;18.20;90.30;;;;;;1886995;76;21104;-47
2021/09/21 03:58:39;;;;;;;13.58;10.25;;;18.20;90.30;;;;;;1886916;76;21033;-50
2021/09/21 04:01:08;;;;;;;13.78;10.40;;;18.20;90.50;;;;;;1887068;76;21526;-47
2021/09/21 04:03:37;;;;;;;12.50;9.70;;;18.10;90.50;;;;;;1887008;76;21102;-51
2021/09/21 04:06:07;;;;;;;12.45;9.63;;;18.20;90.50;;;;;;1887019;76;21124;-49
2021/09/21 04:08:36;;;;;;;13.70;9.65;;;18.20;90.70;;;;;;1886902;76;21018;-49
2021/09/21 04:11:05;;;;;;;18.73;11.90;;;18.10;90.60;;;;;;1886904;76;21147;-48
2021/09/21 04:13:34;;;;;;;14.10;9.65;;;18.10;90.60;;;;;;1887049;76;21037;-51
2021/09/21 04:16:03;;;;;;;12.33;8.80;;;18.10;90.80;;;;;;1886882;76;21115;-48
2021/09/21 04:18:33;;;;;;;14.73;10.48;;;18.00;91.10;;;;;;1886946;75;21037;-47
2021/09/21 04:21:02;;;;;;;22.70;20.08;;;18.00;91.20;;;;;;1887025;75;21077;-49
2021/09/21 04:23:32;;;;;;;17.98;11.78;;;17.90;91.10;;;;;;1886976;76;21096;-47
2021/09/21 04:26:02;;;;;;;13.13;10.45;;;17.90;90.90;;;;;;1886926;76;21080;-49
2021/09/21 04:28:31;;;;;;;11.45;8.60;;;17.90;91.20;;;;;;1886853;76;21030;-47
2021/09/21 04:31:08;;;;;;;10.80;8.10;;;17.80;91.30;;;;;;1886862;76;21151;-50
2021/09/21 04:33:32;;;;;;;9.80;7.28;;;17.80;91.20;;;;;;1885632;76;21100;-48
2021/09/21 04:36:02;;;;;;;8.88;7.50;;;17.80;91.20;;;;;;1886843;76;21041;-48
2021/09/21 04:38:31;;;;;;;10.65;8.18;;;17.80;91.10;;;;;;1886894;76;21121;-47
2021/09/21 04:41:01;;;;;;;18.75;11.93;;;17.80;91.10;;;;;;1886911;76;21081;-48
2021/09/21 04:43:30;;;;;;;21.07;14.65;;;17.80;91.10;;;;;;1886868;76;21030;-46
2021/09/21 04:45:59;;;;;;;12.18;9.73;;;17.80;91.20;;;;;;1886909;75;21030;-47
2021/09/21 04:48:29;;;;;;;11.97;10.25;;;17.80;91.10;;;;;;1886832;75;21177;-47
2021/09/21 04:50:58;;;;;;;14.55;10.03;;;17.80;91.20;;;;;;1887128;76;21097;-48
2021/09/21 04:53:28;;;;;;;26.40;14.10;;;17.80;91.10;;;;;;1892166;74;21141;-47
2021/09/21 04:55:58;;;;;;;21.33;14.45;;;17.80;91.30;;;;;;1899328;75;21010;-47
2021/09/21 04:58:27;;;;;;;35.15;18.67;;;17.80;91.40;;;;;;1899358;75;21030;-47
2021/09/21 05:00:56;;;;;;;24.98;15.32;;;17.80;91.70;;;;;;1899248;74;21075;-47
2021/09/21 05:03:26;;;;;;;14.78;11.00;;;17.80;91.70;;;;;;1899287;74;21087;-52
2021/09/21 05:05:55;;;;;;;12.65;7.53;;;17.80;91.80;;;;;;1899413;75;21083;-46
2021/09/21 05:08:24;;;;;;;10.72;8.88;;;17.80;91.50;;;;;;1899514;75;21467;-46
2021/09/21 05:10:53;;;;;;;8.28;6.80;;;17.70;91.50;;;;;;1899298;75;21005;-50
2021/09/21 05:13:22;;;;;;;7.60;6.03;;;17.60;91.40;;;;;;1899421;75;21156;-50
2021/09/21 05:15:52;;;;;;;16.95;6.40;;;17.60;91.30;;;;;;1899262;75;21045;-48
2021/09/21 05:18:22;;;;;;;9.43;6.20;;;17.50;91.40;;;;;;1899310;75;21022;-48
2021/09/21 05:20:51;;;;;;;14.95;10.50;;;17.50;91.40;;;;;;1899353;75;21025;-48
2021/09/21 05:23:20;;;;;;;8.00;7.00;;;17.40;91.40;;;;;;1899247;75;21096;-46
2021/09/21 05:25:50;;;;;;;8.70;6.55;;;17.40;91.40;;;;;;1899350;74;21065;-48
2021/09/21 05:28:19;;;;;;;7.40;6.05;;;17.30;91.40;;;;;;1899361;75;21025;-48
2021/09/21 05:30:49;;;;;;;6.50;5.47;;;17.30;91.40;;;;;;1899288;75;21037;-46
2021/09/21 05:33:18;;;;;;;10.18;7.80;;;17.20;91.50;;;;;;1899395;75;21451;-47
2021/09/21 05:35:47;;;;;;;8.33;6.28;;;17.20;91.40;;;;;;1899255;75;21099;-49
2021/09/21 05:38:17;;;;;;;4.15;3.58;;;17.20;91.50;;;;;;1899209;75;21135;-47
2021/09/21 05:40:46;;;;;;;5.78;3.55;;;17.20;91.30;;;;;;1899320;75;21096;-47
2021/09/21 05:43:16;;;;;;;6.17;5.05;;;17.10;91.10;;;;;;1899267;75;20998;-48
2021/09/21 05:45:45;;;;;;;5.65;4.85;;;17.10;91.30;;;;;;1899387;75;21018;-47
2021/09/21 05:48:14;;;;;;;7.15;4.53;;;17.10;91.30;;;;;;1899489;75;21026;-49
2021/09/21 05:50:43;;;;;;;9.08;6.33;;;17.10;91.30;;;;;;1899314;75;21222;-47
2021/09/21 05:53:13;;;;;;;8.40;6.15;;;17.00;91.20;;;;;;1899229;74;21092;-47
2021/09/21 05:55:42;;;;;;;6.25;3.98;;;17.10;91.30;;;;;;1896607;76;21057;-48
2021/09/21 05:58:12;;;;;;;6.95;4.60;;;17.00;91.10;;;;;;1896642;76;21055;-48
2021/09/21 06:00:41;;;;;;;7.97;4.17;;;17.10;91.20;;;;;;1896624;76;21108;-50
2021/09/21 06:03:11;;;;;;;4.83;4.03;;;17.10;91.10;;;;;;1896559;76;21159;-48
2021/09/21 06:05:40;;;;;;;5.35;3.58;;;17.10;91.00;;;;;;1896671;76;21033;-48
2021/09/21 06:08:10;;;;;;;8.25;4.47;;;17.10;91.00;;;;;;1896602;76;21041;-47
2021/09/21 06:10:39;;;;;;;6.55;4.17;;;17.10;90.90;;;;;;1896556;76;21103;-46
2021/09/21 06:13:09;;;;;;;5.53;4.00;;;17.20;90.80;;;;;;1896456;75;21037;-49
2021/09/21 06:15:38;;;;;;;5.62;3.33;;;17.20;90.90;;;;;;1896522;76;21026;-48
2021/09/21 06:18:08;;;;;;;8.43;6.10;;;17.20;90.60;;;;;;1896455;76;21140;-50
2021/09/21 06:20:39;;;;;;;6.30;4.30;;;17.20;90.60;;;;;;1896591;76;21085;-48
2021/09/21 06:23:09;;;;;;;5.97;3.90;;;17.20;90.80;;;;;;1896647;76;21038;-47
2021/09/21 06:25:39;;;;;;;4.35;3.58;;;17.20;90.70;;;;;;1896625;76;21073;-47
2021/09/21 06:28:09;;;;;;;6.28;4.78;;;17.10;90.30;;;;;;1896489;76;21021;-49
2021/09/21 06:30:38;;;;;;;7.25;4.25;;;17.10;90.50;;;;;;1896433;75;21041;-50
2021/09/21 06:33:08;;;;;;;6.05;3.42;;;17.10;90.70;;;;;;1896501;76;21123;-48
2021/09/21 06:35:37;;;;;;;5.00;4.15;;;17.10;90.50;;;;;;1896363;76;21057;-49
2021/09/21 06:38:07;;;;;;;6.00;3.95;;;17.20;90.40;;;;;;1896580;76;21060;-46
2021/09/21 06:40:37;;;;;;;6.83;3.52;;;17.20;90.40;;;;;;1851751;77;21085;-50
2021/09/21 06:43:06;;;;;;;8.05;4.10;;;17.10;90.50;;;;;;1887277;76;21034;-47
2021/09/21 06:45:35;;;;;;;9.18;4.17;;;17.10;90.50;;;;;;1887260;76;21079;-47
2021/09/21 06:48:06;;;;;;;6.45;4.22;;;17.10;90.30;;;;;;1886809;76;21026;-50
2021/09/21 06:50:37;;;;;;;5.20;3.37;;;17.10;90.50;;;;;;1885199;76;21093;-47
2021/09/21 06:53:07;;;;;;;5.12;3.85;;;17.10;90.40;;;;;;1885082;76;21135;-49
2021/09/21 06:55:36;;;;;;;5.17;3.30;;;17.10;90.40;;;;;;1900186;74;21066;-48
2021/09/21 06:58:06;;;;;;;6.10;4.53;;;17.10;90.30;;;;;;1904969;75;20999;-48
2021/09/21 07:00:38;;;;;;;6.05;4.72;;;17.10;90.30;;;;;;1904976;75;20992;-48
2021/09/21 07:03:07;;;;;;;6.58;4.25;;;17.10;90.30;;;;;;1904964;75;21023;-47
2021/09/21 07:05:37;;;;;;;8.58;3.37;;;17.20;90.30;;;;;;1905143;75;21003;-48
2021/09/21 07:08:07;;;;;;;5.45;3.92;;;17.20;90.10;;;;;;1904914;75;21007;-51
2021/09/21 07:10:36;;;;;;;6.35;2.98;;;17.20;90.00;;;;;;1905006;75;20995;-47
2021/09/21 07:13:05;;;;;;;6.22;3.52;;;17.20;90.10;;;;;;1904890;75;21057;-50
2021/09/21 07:15:34;;;;;;;5.35;3.22;;;17.10;90.00;;;;;;1904976;75;21402;-50
2021/09/21 07:18:04;;;;;;;5.50;3.30;;;17.10;89.90;;;;;;1904997;75;21006;-48
2021/09/21 07:20:33;;;;;;;7.90;4.12;;;17.00;89.20;;;;;;1905055;75;21060;-48
2021/09/21 07:23:03;;;;;;;6.87;4.12;;;16.90;89.60;;;;;;1905061;75;21060;-51
2021/09/21 07:25:33;;;;;;;4.05;2.77;;;16.90;89.90;;;;;;1905001;75;20982;-49
2021/09/21 07:28:03;;;;;;;4.78;3.37;;;16.90;89.50;;;;;;1905066;75;21007;-49
2021/09/21 07:30:33;;;;;;;7.53;3.85;;;16.80;89.50;;;;;;1905104;75;21057;-48
2021/09/21 07:33:02;;;;;;;3.77;3.22;;;16.80;89.80;;;;;;1904993;75;20983;-49
2021/09/21 07:35:31;;;;;;;5.62;3.80;;;16.80;89.90;;;;;;1905059;75;21031;-49
2021/09/21 07:38:00;;;;;;;4.50;3.60;;;16.80;89.90;;;;;;1905028;75;20979;-48
2021/09/21 07:40:31;;;;;;;5.67;4.70;;;16.80;89.90;;;;;;1905029;75;21018;-48
2021/09/21 07:43:00;;;;;;;9.43;6.47;;;16.80;90.00;;;;;;1904995;75;21002;-49
2021/09/21 07:45:30;;;;;;;6.08;4.90;;;16.80;90.00;;;;;;1904960;75;21023;-50
2021/09/21 07:48:00;;;;;;;11.40;6.65;;;16.80;89.70;;;;;;1904921;75;21069;-47
2021/09/21 07:50:29;;;;;;;6.60;4.30;;;16.80;89.30;;;;;;1904998;75;20995;-48
2021/09/21 07:52:59;;;;;;;7.00;4.00;;;16.80;89.50;;;;;;1904247;75;21082;-47
2021/09/21 07:55:30;;;;;;;5.10;4.00;;;16.80;90.50;;;;;;1903799;75;21041;-45
2021/09/21 07:57:59;;;;;;;6.33;3.52;;;16.90;91.00;;;;;;1904477;75;20995;-45
2021/09/21 08:00:29;;;;;;;4.90;3.52;;;17.10;91.00;;;;;;1904356;75;21011;-46
2021/09/21 08:02:59;;;;;;;5.58;3.80;;;17.30;90.60;;;;;;1904418;75;20995;-48
2021/09/21 08:05:28;;;;;;;4.45;3.33;;;17.40;90.50;;;;;;1904677;75;21034;-46
2021/09/21 08:07:58;;;;;;;7.58;3.70;;;17.50;90.30;;;;;;1904212;75;21073;-49
2021/09/21 08:10:27;;;;;;;3.77;3.12;;;17.50;90.00;;;;;;1904421;75;21188;-47
2021/09/21 08:12:57;;;;;;;3.87;2.77;;;17.60;90.00;;;;;;1904374;75;21014;-47
2021/09/21 08:15:30;;;;;;;5.25;3.37;;;17.60;89.40;;;;;;1904318;75;21152;-47
2021/09/21 08:17:59;;;;;;;3.80;3.10;;;17.50;89.70;;;;;;1904557;75;21074;-49
2021/09/21 08:20:28;;;;;;;3.65;3.15;;;17.60;89.30;;;;;;1904371;75;21058;-46
2021/09/21 08:22:58;;;;;;;4.17;2.98;;;17.60;89.40;;;;;;1878607;75;21073;-45
2021/09/21 08:25:28;;;;;;;4.28;3.20;;;17.60;89.30;;;;;;1875704;76;21050;-46
2021/09/21 08:27:58;;;;;;;5.28;3.33;;;17.60;89.20;;;;;;1875538;76;21077;-46
2021/09/21 08:30:28;;;;;;;4.80;2.72;;;17.70;89.30;;;;;;1875517;76;21062;-46
2021/09/21 08:32:57;;;;;;;3.70;2.42;;;17.70;89.20;;;;;;1875485;76;21027;-46
2021/09/21 08:35:27;;;;;;;6.78;3.45;;;17.70;88.60;;;;;;1875553;76;21055;-48
2021/09/21 08:37:57;;;;;;;7.28;6.37;;;17.70;88.80;;;;;;1875459;76;21081;-48
2021/09/21 08:40:27;;;;;;;12.37;7.90;;;17.80;88.90;;;;;;1875585;76;21540;-48
2021/09/21 08:42:57;;;;;;;12.55;7.35;;;17.90;88.70;;;;;;1875459;76;21172;-47
2021/09/21 08:45:27;;;;;;;6.22;5.35;;;17.90;87.80;;;;;;1875431;76;21090;-48
2021/09/21 08:47:56;;;;;;;5.35;4.17;;;17.90;88.10;;;;;;1875504;76;21152;-48
2021/09/21 08:50:26;;;;;;;6.17;4.22;;;17.90;88.10;;;;;;1875523;76;21086;-46
2021/09/21 08:52:55;;;;;;;5.67;4.30;;;17.90;88.00;;;;;;1875384;76;21038;-48
2021/09/21 08:55:26;;;;;;;5.03;3.75;;;17.90;87.60;;;;;;1880122;75;21105;-49
2021/09/21 08:57:57;;;;;;;4.97;3.87;;;17.90;87.70;;;;;;1897123;75;21117;-50
2021/09/21 09:00:29;;;;;;;5.08;3.50;;;17.90;87.20;;;;;;1897067;75;21026;-50
2021/09/21 09:03:09;;;;;;;5.12;3.17;;;17.80;87.30;;;;;;1897241;75;21014;-50
2021/09/21 09:05:57;;;;;;;4.90;3.75;;;17.80;87.60;;;;;;1897153;75;21022;-47
2021/09/21 09:08:31;;;;;;;4.53;3.45;;;17.80;87.70;;;;;;1896338;75;21109;-50
2021/09/21 09:11:20;;;;;;;4.78;3.37;;;17.80;87.60;;;;;;1897004;75;21453;-48
2021/09/21 09:13:57;;;;;;;5.65;3.80;;;17.80;87.30;;;;;;1897225;75;21078;-50
2021/09/21 09:16:32;;;;;;;6.22;3.60;;;17.70;87.10;;;;;;1897027;75;21084;-47
2021/09/21 09:19:07;;;;;;;5.83;2.87;;;17.60;86.80;;;;;;1896804;75;21425;-50
2021/09/21 09:21:39;;;;;;;4.78;3.27;;;17.50;87.90;;;;;;1893667;75;21034;-46
2021/09/21 09:24:09;;;;;;;3.72;3.20;;;17.50;87.80;;;;;;1896826;75;21147;-47
2021/09/21 09:26:41;;;;;;;4.05;3.65;;;17.50;87.70;;;;;;1897019;75;21089;-47
2021/09/21 09:29:13;;;;;;;5.47;3.90;;;17.50;87.40;;;;;;1897044;75;21080;-46
2021/09/21 09:31:44;;;;;;;3.83;3.25;;;17.50;87.50;;;;;;1897104;75;21030;-50
2021/09/21 09:34:27;;;;;;;3.27;2.98;;;17.50;87.50;;;;;;1897044;75;21038;-49
2021/09/21 09:36:58;;;;;;;5.40;3.65;;;17.40;87.20;;;;;;1897018;75;21026;-48
2021/09/21 09:39:30;;;;;;;5.30;3.65;;;17.40;87.60;;;;;;1897064;75;21171;-49
2021/09/21 09:42:01;;;;;;;5.67;3.27;;;17.50;87.90;;;;;;1897534;75;21093;-51
2021/09/21 09:44:32;;;;;;;4.30;3.27;;;17.50;87.90;;;;;;1897867;75;21096;-47
2021/09/21 09:47:04;;;;;;;3.80;3.15;;;17.50;87.00;;;;;;1897853;75;21042;-49
2021/09/21 09:49:38;;;;;;;5.87;4.80;;;17.40;86.30;;;;;;1897946;75;21033;-47
2021/09/21 09:52:16;;;;;;;5.97;3.72;;;17.20;86.60;;;;;;1897884;75;21782;-47
2021/09/21 09:54:46;;;;;;;7.25;4.55;;;17.10;87.20;;;;;;1897955;75;21033;-49
2021/09/21 09:57:16;;;;;;;6.55;4.00;;;17.00;87.60;;;;;;1897740;75;21136;-49
2021/09/21 09:59:46;;;;;;;6.87;5.00;;;16.90;87.80;;;;;;1897733;75;21092;-50
2021/09/21 10:02:16;;;;;;;7.65;5.55;;;16.90;88.20;;;;;;1897862;75;21034;-50
2021/09/21 10:04:46;;;;;;;6.33;4.53;;;16.90;88.50;;;;;;1897761;75;21038;-48
2021/09/21 10:07:15;;;;;;;5.45;4.15;;;16.80;88.40;;;;;;1897722;75;21030;-50
2021/09/21 10:09:45;;;;;;;5.10;4.28;;;16.80;88.60;;;;;;1897798;75;21073;-51
2021/09/21 10:12:15;;;;;;;6.55;4.90;;;16.80;88.90;;;;;;1897782;75;21038;-47
2021/09/21 10:14:45;;;;;;;5.87;4.30;;;16.80;88.90;;;;;;1897766;75;21073;-47
2021/09/21 10:17:17;;;;;;;5.90;4.97;;;16.80;89.00;;;;;;1897558;75;21081;-48
2021/09/21 10:19:47;;;;;;;9.30;6.15;;;16.80;89.00;;;;;;1895889;75;21034;-48
2021/09/21 10:22:19;;;;;;;6.90;4.95;;;16.80;89.10;;;;;;1896674;75;21124;-48
2021/09/21 10:24:52;;;;;;;5.00;3.85;;;16.80;88.90;;;;;;1896227;75;21046;-48
2021/09/21 10:27:24;;;;;;;4.20;3.75;;;16.80;89.00;;;;;;1897767;75;21088;-49
2021/09/21 10:30:02;;;;;;;4.00;3.30;;;16.80;88.90;;;;;;1897754;75;21088;-47
2021/09/21 10:32:32;;;;;;;5.17;3.67;;;16.80;89.00;;;;;;1897920;75;21199;-49
2021/09/21 10:35:04;;;;;;;3.30;2.98;;;16.80;88.90;;;;;;1897757;75;21042;-47
2021/09/21 10:37:33;;;;;;;6.22;5.65;;;16.80;88.80;;;;;;1896150;75;21549;-50
2021/09/21 10:40:04;;;;;;;5.05;3.80;;;16.80;88.80;;;;;;1897714;75;21029;-47
2021/09/21 10:42:34;;;;;;;5.17;3.30;;;16.80;89.50;;;;;;1897782;75;21511;-48
2021/09/21 10:45:05;;;;;;;4.90;3.60;;;16.90;88.80;;;;;;1897712;75;21061;-50
2021/09/21 10:47:41;;;;;;;7.87;7.08;;;16.90;88.70;;;;;;1897840;75;21546;-49
2021/09/21 10:50:18;;;;;;;3.77;2.90;;;16.90;88.70;;;;;;1897748;75;21030;-47
2021/09/21 10:52:47;;;;;;;4.17;2.72;;;17.00;88.60;;;;;;1897920;75;21050;-47
2021/09/21 10:55:20;;;;;;;10.08;9.25;;;17.00;88.30;;;;;;1897740;75;21089;-47
2021/09/21 10:57:50;;;;;;;4.17;3.45;;;17.00;88.30;;;;;;1897809;75;21085;-48
2021/09/21 11:00:20;;;;;;;4.12;3.20;;;16.90;88.10;;;;;;1897865;75;21053;-48
2021/09/21 11:02:53;;;;;;;3.80;3.40;;;17.00;88.10;;;;;;1897879;75;21042;-49
2021/09/21 11:05:27;;;;;;;4.47;3.52;;;17.00;88.10;;;;;;1898009;75;21096;-47
2021/09/21 11:07:59;;;;;;;3.37;2.83;;;17.00;88.30;;;;;;1898217;75;21050;-48
2021/09/21 11:10:34;;;;;;;6.87;3.60;;;17.00;88.20;;;;;;1898005;75;21076;-50
2021/09/21 11:13:15;;;;;;;3.12;2.83;;;17.00;88.10;;;;;;1898018;75;21097;-48
2021/09/21 11:15:46;;;;;;;4.83;2.60;;;17.00;88.10;;;;;;1897832;75;21088;-47
2021/09/21 11:18:18;;;;;;;5.45;3.40;;;17.00;88.20;;;;;;1897929;75;21152;-48
2021/09/21 11:20:50;;;;;;;3.50;2.90;;;17.00;88.20;;;;;;1897904;75;21010;-48
2021/09/21 11:23:22;;;;;;;2.77;2.52;;;17.00;88.40;;;;;;1897670;75;21073;-48
2021/09/21 11:25:52;;;;;;;3.87;2.50;;;17.00;88.20;;;;;;1897696;75;21038;-47
2021/09/21 11:28:21;;;;;;;3.85;3.42;;;17.00;88.20;;;;;;1897757;75;21038;-47
2021/09/21 11:30:51;;;;;;;4.65;3.40;;;17.00;88.30;;;;;;1897922;75;21034;-48
2021/09/21 11:33:22;;;;;;;6.33;4.12;;;17.00;88.40;;;;;;1897874;75;21104;-51
2021/09/21 11:35:54;;;;;;;5.00;3.80;;;17.10;88.50;;;;;;1897757;75;21179;-47
2021/09/21 11:38:24;;;;;;;5.15;4.65;;;17.10;88.20;;;;;;1895523;75;21091;-50
2021/09/21 11:40:54;;;;;;;5.25;4.30;;;17.20;88.00;;;;;;1897765;75;21038;-49
2021/09/21 11:43:24;;;;;;;6.00;4.40;;;17.20;87.90;;;;;;1897813;75;21042;-48
2021/09/21 11:45:54;;;;;;;4.00;3.22;;;17.20;87.80;;;;;;1897860;75;21014;-49
2021/09/21 11:48:24;;;;;;;3.35;3.00;;;17.20;87.70;;;;;;1897796;75;21034;-48
2021/09/21 11:50:54;;;;;;;3.70;3.20;;;17.20;87.70;;;;;;1897826;75;21054;-48
2021/09/21 11:53:25;;;;;;;5.72;2.60;;;17.20;87.70;;;;;;1897934;75;21026;-47
2021/09/21 11:56:01;;;;;;;3.98;3.15;;;17.30;87.80;;;;;;1897828;75;21042;-47
2021/09/21 11:58:33;;;;;;;3.37;2.77;;;17.30;87.40;;;;;;1897900;75;21069;-49
2021/09/21 12:01:08;;;;;;;3.30;2.77;;;17.40;87.20;;;;;;1897786;75;21054;-50
2021/09/21 12:03:37;;;;;;;3.02;2.72;;;17.50;87.10;;;;;;1897815;75;21022;-49
2021/09/21 12:06:06;;;;;;;3.92;2.40;;;17.50;86.10;;;;;;1897696;75;21073;-50
2021/09/21 12:08:38;;;;;;;4.12;2.42;;;17.50;86.40;;;;;;1897852;75;21030;-50
2021/09/21 12:11:12;;;;;;;4.50;2.87;;;17.50;86.40;;;;;;1897770;75;21046;-50
2021/09/21 12:13:42;;;;;;;4.63;2.60;;;17.60;86.20;;;;;;1898147;75;21025;-49
2021/09/21 12:16:12;;;;;;;4.42;3.65;;;17.60;86.10;;;;;;1897668;75;21050;-50
2021/09/21 12:18:42;;;;;;;7.15;5.92;;;17.70;85.70;;;;;;1897954;75;21129;-48
2021/09/21 12:21:14;;;;;;;6.40;4.60;;;17.70;85.70;;;;;;1897728;75;21014;-48
2021/09/21 12:23:46;;;;;;;4.50;3.08;;;17.70;85.60;;;;;;1897914;75;21152;-47
2021/09/21 12:26:17;;;;;;;4.12;3.05;;;17.80;85.90;;;;;;1897815;75;21046;-48
2021/09/21 12:28:52;;;;;;;3.17;2.72;;;17.80;85.60;;;;;;1897762;75;21092;-47
2021/09/21 12:31:28;;;;;;;3.65;3.33;;;17.70;85.30;;;;;;1897901;75;21108;-50
2021/09/21 12:33:59;;;;;;;3.90;3.27;;;17.70;85.30;;;;;;1897901;75;21456;-47
2021/09/21 12:36:33;;;;;;;4.60;3.10;;;17.60;84.50;;;;;;1897828;75;21002;-49
2021/09/21 12:39:03;;;;;;;;;;;17.50;84.50;;;;;;1900774;75;21022;-48
2021/09/21 12:41:35;;;;;;;3.83;3.15;;;17.40;85.30;;;;;;1897870;75;20358;-50
2021/09/21 12:44:10;;;;;;;3.40;3.10;;;17.30;85.60;;;;;;1896860;75;21417;-47
2021/09/21 12:46:38;;;;;;;3.80;3.40;;;17.40;85.90;;;;;;1897077;75;21030;-51
2021/09/21 12:49:09;;;;;;;7.60;4.00;;;17.40;85.90;;;;;;1897780;75;21049;-48
2021/09/21 12:51:41;;;;;;;4.22;3.45;;;17.40;86.20;;;;;;1897893;75;21042;-48
2021/09/21 12:54:12;;;;;;;5.17;3.60;;;17.40;86.80;;;;;;1897854;75;21504;-50
2021/09/21 12:56:44;;;;;;;6.47;5.45;;;17.50;85.50;;;;;;1897294;75;21030;-49
2021/09/21 12:59:15;;;;;;;7.17;4.92;;;17.40;85.80;;;;;;1897839;75;21484;-50
2021/09/21 13:01:50;;;;;;;5.87;4.12;;;17.50;86.10;;;;;;1897955;75;21014;-46
2021/09/21 13:04:17;;;;;;;7.12;3.90;;;17.50;86.10;;;;;;1896728;75;21550;-47
2021/09/21 13:06:48;;;;;;;5.25;4.47;;;17.40;86.20;;;;;;1897688;75;21106;-47